Time;durP1;ratioP1;P1;durP2;ratioP2;P2;SDS_P1;SDS_P2;PMS_P1;PMS_P2;Temp;Humidity;BMP_temperature;BMP_pressure;BME280_temperature;BME280_humidity;BME280_pressure;Samples;Min_cycle;Max_cycle;Signal;HPM_P1;HPM_P2
2022/03/16 00:00:21;;;;;;;33.23;19.47;;;8.40;99.90;;;8.77;71.82;98329.13;5027246;28;20262;-40
2022/03/16 00:02:50;;;;;;;30.40;18.50;;;8.40;99.90;;;8.76;71.93;98327.47;5027922;28;20049;-40
2022/03/16 00:05:18;;;;;;;35.37;19.73;;;8.40;99.90;;;8.77;71.88;98330.97;5058643;28;20049;-40
2022/03/16 00:07:46;;;;;;;31.53;19.97;;;8.40;99.90;;;8.81;71.83;98332.38;5026420;28;20438;-40
2022/03/16 00:10:14;;;;;;;29.67;19.63;;;8.40;99.90;;;8.83;71.45;98335.72;5026167;28;20057;-40
2022/03/16 00:12:43;;;;;;;36.27;19.67;;;8.40;99.90;;;8.84;71.44;98335.59;5026433;28;20045;-40
2022/03/16 00:15:11;;;;;;;32.87;19.47;;;8.50;99.90;;;8.82;71.50;98334.91;5026917;28;20052;-40
2022/03/16 00:17:39;;;;;;;31.60;19.53;;;8.40;99.90;;;8.78;71.47;98341.44;5026098;28;20057;-40
2022/03/16 00:20:08;;;;;;;29.37;19.70;;;8.40;99.90;;;8.77;71.40;98334.44;5025869;28;20045;-40
2022/03/16 00:22:36;;;;;;;32.80;20.07;;;8.30;99.90;;;8.77;71.23;98338.94;5058246;28;20055;-40
2022/03/16 00:25:05;;;;;;;31.87;20.10;;;8.30;99.90;;;8.70;71.33;98335.09;5027216;28;20053;-40
2022/03/16 00:27:34;;;;;;;31.67;20.23;;;8.20;99.90;;;8.72;71.50;98335.81;5026649;28;20063;-40
2022/03/16 00:30:03;;;;;;;30.17;19.23;;;8.30;99.90;;;8.75;71.58;98339.06;5059124;28;20057;-40
2022/03/16 00:32:31;;;;;;;35.10;20.73;;;8.40;99.90;;;8.78;71.51;98336.13;5027201;28;20197;-40
2022/03/16 00:34:59;;;;;;;36.17;20.33;;;8.30;99.90;;;8.79;71.32;98335.16;5026020;28;20055;-40
2022/03/16 00:37:28;;;;;;;37.60;21.37;;;8.40;99.90;;;8.79;71.01;98339.63;5026084;28;20052;-40
2022/03/16 00:39:56;;;;;;;34.80;21.70;;;8.40;99.90;;;8.71;71.13;98331.50;5026359;28;20259;-40
2022/03/16 00:42:24;;;;;;;38.33;22.10;;;8.20;99.90;;;8.66;71.32;98332.72;5026935;28;20044;-40
2022/03/16 00:44:52;;;;;;;36.77;22.23;;;8.20;99.90;;;8.67;71.43;98338.88;5024657;28;20063;-40
2022/03/16 00:47:20;;;;;;;39.40;24.23;;;8.20;99.90;;;8.61;71.32;98329.63;5025609;28;20063;-39
2022/03/16 00:49:50;;;;;;;38.63;23.03;;;8.10;99.90;;;8.65;71.77;98330.22;5041649;28;20056;-40
2022/03/16 00:52:18;;;;;;;42.10;22.57;;;8.20;99.90;;;8.63;71.66;98333.00;5027907;28;20057;-40
2022/03/16 00:54:46;;;;;;;36.90;21.43;;;8.20;99.90;;;8.62;71.17;98331.28;5027342;28;20079;-40
2022/03/16 00:57:14;;;;;;;37.50;21.93;;;8.20;99.90;;;8.65;71.55;98324.91;5024453;28;20060;-40
2022/03/16 00:59:42;;;;;;;36.73;22.20;;;8.30;99.90;;;8.66;71.44;98318.59;5023327;28;20363;-40
2022/03/16 01:02:10;;;;;;;38.70;22.17;;;8.30;99.90;;;8.70;71.50;98314.69;5024850;28;20045;-40
2022/03/16 01:04:38;;;;;;;31.33;21.37;;;8.40;99.90;;;8.73;71.18;98319.75;5026759;28;20053;-40
2022/03/16 01:07:06;;;;;;;38.77;21.93;;;8.40;99.90;;;8.75;71.27;98320.47;5026515;28;20071;-40
2022/03/16 01:09:34;;;;;;;39.67;22.07;;;8.40;99.90;;;8.80;71.62;98314.75;5027022;28;20087;-40
2022/03/16 01:12:07;;;;;;;36.27;22.87;;;8.50;99.90;;;8.85;71.34;98312.53;5027333;28;20057;-40
2022/03/16 01:14:35;;;;;;;36.67;23.53;;;8.60;99.90;;;8.89;71.48;98313.94;5024297;28;20063;-40
2022/03/16 01:17:03;;;;;;;41.23;24.90;;;8.60;99.90;;;8.93;71.44;98315.34;5025484;28;20042;-40
2022/03/16 01:19:34;;;;;;;46.23;27.43;;;8.60;99.90;;;8.95;71.22;98305.44;5058256;28;20060;-40
2022/03/16 01:22:04;;;;;;;49.77;27.33;;;8.70;99.90;;;8.99;71.34;98308.66;5024800;28;20049;-40
2022/03/16 01:24:33;;;;;;;58.10;27.97;;;8.70;99.90;;;8.99;70.94;98306.00;5026285;28;20079;-40
2022/03/16 01:27:01;;;;;;;44.70;26.87;;;8.70;99.90;;;9.00;70.88;98307.72;5026768;28;20063;-40
2022/03/16 01:29:32;;;;;;;91.47;45.30;;;8.70;99.90;;;9.01;71.04;98306.72;5025855;28;20064;-40
2022/03/16 01:32:00;;;;;;;74.13;37.70;;;8.70;99.90;;;9.02;70.73;98309.25;5044534;28;20062;-40
2022/03/16 01:34:28;;;;;;;106.77;51.43;;;8.70;99.90;;;9.02;70.90;98303.94;5028076;28;20061;-40
2022/03/16 01:36:56;;;;;;;49.83;28.10;;;8.70;99.90;;;9.04;70.94;98309.13;5029662;28;20053;-40
2022/03/16 01:39:24;;;;;;;39.50;23.77;;;8.70;99.90;;;9.05;70.75;98311.66;5030438;28;20259;-40
2022/03/16 01:41:53;;;;;;;37.87;22.03;;;8.80;99.90;;;9.05;71.00;98301.03;5028475;28;20052;-40
2022/03/16 01:44:51;;;;;;;39.23;23.20;;;8.70;99.90;;;9.04;70.53;98306.47;5030033;28;20048;-40
2022/03/16 01:47:21;;;;;;;34.47;21.70;;;8.80;99.90;;;9.06;70.59;98312.47;5028550;28;20052;-40
2022/03/16 01:49:51;;;;;;;37.00;22.77;;;8.80;99.90;;;9.06;70.81;98308.00;5029606;28;20051;-41
2022/03/16 01:52:25;;;;;;;39.83;21.80;;;8.80;99.90;;;9.09;70.77;98311.34;5060835;28;20049;-40
2022/03/16 01:54:54;;;;;;;;;;;8.70;99.90;;;9.07;70.53;98311.47;5028428;28;20254;-40
2022/03/16 01:57:24;;;;;;;33.63;20.83;;;8.80;99.90;;;9.11;70.60;98309.41;5011363;28;19917;-41
2022/03/16 01:59:52;;;;;;;39.27;25.73;;;8.80;99.90;;;9.10;70.41;98310.41;5029676;28;20047;-40
2022/03/16 02:02:19;;;;;;;35.73;22.13;;;8.80;99.90;;;9.11;70.64;98314.72;5027995;28;20058;-40
2022/03/16 02:04:48;;;;;;;38.67;23.03;;;8.80;99.90;;;9.12;70.45;98316.41;5027223;28;20063;-40
2022/03/16 02:07:16;;;;;;;40.03;23.27;;;8.80;99.90;;;9.12;70.48;98311.94;5030261;28;20469;-40
2022/03/16 02:09:44;;;;;;;37.60;22.70;;;8.80;99.90;;;9.12;70.49;98314.59;5027548;28;20059;-40
2022/03/16 02:12:13;;;;;;;38.80;21.63;;;8.80;99.90;;;9.12;70.57;98317.25;5030185;28;20045;-40
2022/03/16 02:14:41;;;;;;;35.50;21.70;;;8.80;99.90;;;9.12;70.21;98313.75;5029236;28;20049;-41
2022/03/16 02:17:08;;;;;;;34.73;21.93;;;8.80;99.90;;;9.12;70.28;98319.06;5021871;28;20046;-40
2022/03/16 02:19:36;;;;;;;34.60;21.00;;;8.80;99.90;;;9.11;70.37;98317.38;5009386;28;20251;-40
2022/03/16 02:22:09;;;;;;;33.90;22.53;;;8.80;99.90;;;9.09;70.34;98309.53;5009223;28;20053;-40
2022/03/16 02:24:37;;;;;;;35.63;21.53;;;8.80;99.90;;;9.08;70.38;98310.53;5011393;28;20174;-40
2022/03/16 02:27:05;;;;;;;35.03;20.97;;;8.80;99.90;;;9.10;70.21;98316.53;5009325;28;20077;-40
2022/03/16 02:29:34;;;;;;;35.03;21.20;;;8.70;99.90;;;9.07;70.27;98314.13;5009613;28;20068;-41
2022/03/16 02:32:02;;;;;;;36.23;22.00;;;8.70;99.90;;;9.05;70.19;98314.31;5008895;28;20060;-40
2022/03/16 02:34:30;;;;;;;33.13;19.80;;;8.70;99.90;;;9.05;70.40;98311.66;5008868;28;20057;-40
2022/03/16 02:36:58;;;;;;;38.40;21.67;;;8.70;99.90;;;9.07;70.32;98311.47;5009783;28;20049;-40
2022/03/16 02:39:26;;;;;;;32.70;19.37;;;8.70;99.90;;;9.07;70.32;98315.00;5009081;28;20058;-40
2022/03/16 02:41:54;;;;;;;34.83;20.50;;;8.80;99.90;;;9.08;70.31;98310.53;5008510;28;20251;-40
2022/03/16 02:44:22;;;;;;;35.87;21.47;;;8.70;99.90;;;9.09;70.43;98309.53;5008696;28;20059;-40
2022/03/16 02:46:50;;;;;;;33.43;20.93;;;8.80;99.90;;;9.11;70.35;98309.41;5006571;28;20061;-40
2022/03/16 02:49:18;;;;;;;38.93;22.53;;;8.80;99.90;;;9.10;70.35;98310.41;5009045;28;20064;-40
2022/03/16 02:51:45;;;;;;;35.30;22.17;;;8.80;99.90;;;9.09;70.38;98308.69;5008646;28;20476;-40
2022/03/16 02:54:14;;;;;;;32.30;20.50;;;8.70;99.90;;;9.10;70.24;98313.06;5008831;28;20410;-40
2022/03/16 02:56:42;;;;;;;34.70;20.77;;;8.80;99.90;;;9.09;70.37;98309.53;5006995;28;20061;-40
2022/03/16 02:59:10;;;;;;;37.00;21.17;;;8.70;99.90;;;9.08;70.25;98310.53;5009077;28;20071;-40
2022/03/16 03:01:38;;;;;;;32.10;20.27;;;8.70;99.90;;;9.06;70.34;98310.66;5007477;28;20064;-41
2022/03/16 03:04:06;;;;;;;42.60;23.87;;;8.70;99.90;;;9.05;70.19;98305.47;5008313;28;20060;-40
2022/03/16 03:06:34;;;;;;;40.07;23.80;;;8.70;99.90;;;9.02;70.38;98309.25;5008056;28;20128;-40
2022/03/16 03:09:02;;;;;;;32.87;20.30;;;8.70;99.90;;;9.04;70.34;98317.09;5008790;28;20064;-40
2022/03/16 03:11:29;;;;;;;36.03;21.57;;;8.70;99.90;;;9.04;70.33;98317.09;5008592;28;20541;-40
2022/03/16 03:13:57;;;;;;;39.77;23.07;;;8.70;99.90;;;9.03;70.24;98318.91;5008325;28;20050;-40
2022/03/16 03:16:25;;;;;;;39.33;21.80;;;8.70;99.90;;;9.02;70.20;98313.72;5007881;28;20050;-40
2022/03/16 03:18:53;;;;;;;39.13;21.43;;;8.70;99.90;;;9.01;70.37;98325.31;5007751;28;20049;-40
2022/03/16 03:21:21;;;;;;;42.10;22.80;;;8.60;99.90;;;9.00;70.16;98328.97;5008122;28;20058;-40
2022/03/16 03:23:49;;;;;;;44.87;25.53;;;8.60;99.90;;;8.99;70.24;98324.59;5008479;28;20042;-40
2022/03/16 03:26:16;;;;;;;43.70;26.73;;;8.60;99.90;;;8.99;70.38;98322.78;5008809;28;20049;-40
2022/03/16 03:28:45;;;;;;;47.17;26.73;;;8.70;99.90;;;8.98;70.41;98326.44;5008110;28;20063;-40
2022/03/16 03:31:13;;;;;;;44.47;25.13;;;8.70;99.90;;;9.00;70.46;98331.63;5008024;28;20060;-40
2022/03/16 03:33:40;;;;;;;41.47;25.13;;;8.70;99.90;;;9.01;70.22;98326.13;5007277;28;20050;-40
2022/03/16 03:36:08;;;;;;;42.90;24.23;;;8.70;99.90;;;9.01;70.22;98330.63;5008889;28;20068;-40
2022/03/16 03:38:36;;;;;;;49.13;25.03;;;8.70;99.90;;;8.99;70.54;98328.09;5007969;28;20068;-39
2022/03/16 03:41:04;;;;;;;49.93;25.97;;;8.60;99.90;;;8.96;70.42;98323.06;5006755;28;20053;-40
2022/03/16 03:43:32;;;;;;;48.33;25.73;;;8.60;99.90;;;8.97;70.32;98324.72;5008661;28;20064;-40
2022/03/16 03:46:00;;;;;;;45.63;24.33;;;8.60;99.90;;;8.97;70.36;98331.88;5007603;28;20054;-40
2022/03/16 03:48:28;;;;;;;51.67;27.10;;;8.60;99.90;;;8.98;70.38;98331.75;5007740;28;20291;-40
2022/03/16 03:50:56;;;;;;;50.10;28.23;;;8.60;99.90;;;8.97;70.45;98338.00;5008596;28;20057;-40
2022/03/16 03:53:24;;;;;;;48.70;26.53;;;8.60;99.90;;;8.98;70.54;98333.56;5007841;28;20064;-40
2022/03/16 03:55:51;;;;;;;47.27;28.83;;;8.60;99.90;;;8.98;70.51;98333.56;5008103;28;20457;-39
2022/03/16 03:58:19;;;;;;;45.53;25.67;;;8.60;99.90;;;9.00;70.42;98328.97;5007864;28;20045;-39
2022/03/16 04:00:49;;;;;;;49.00;27.97;;;8.70;99.90;;;9.00;70.38;98339.59;5007297;28;20053;-39
2022/03/16 04:03:17;;;;;;;48.63;26.90;;;8.70;99.90;;;9.02;70.28;98340.28;5006005;28;20042;-39
2022/03/16 04:05:45;;;;;;;46.80;27.53;;;8.70;99.90;;;9.01;70.43;98341.25;5006224;28;20052;-40
2022/03/16 04:08:13;;;;;;;50.83;26.43;;;8.60;99.90;;;9.01;70.36;98341.25;5007555;28;20056;-39
2022/03/16 04:10:40;;;;;;;50.23;26.70;;;8.70;99.90;;;9.01;70.16;98343.91;5007544;28;20060;-39
2022/03/16 04:13:08;;;;;;;47.63;25.83;;;8.70;99.90;;;9.02;70.22;98348.25;5008201;28;20064;-39
2022/03/16 04:15:36;;;;;;;52.30;26.83;;;8.70;99.90;;;9.01;70.21;98342.06;5007166;28;20059;-39
2022/03/16 04:18:04;;;;;;;54.90;28.87;;;8.70;99.90;;;9.00;70.17;98340.41;5008085;28;20050;-39
2022/03/16 04:20:32;;;;;;;51.87;27.73;;;8.70;99.90;;;8.99;70.22;98340.53;5006845;28;20056;-40
2022/03/16 04:22:59;;;;;;;56.67;30.73;;;8.70;99.90;;;9.00;70.24;98348.38;5006456;28;20240;-39
2022/03/16 04:25:27;;;;;;;57.37;27.23;;;8.70;99.90;;;8.99;70.54;98346.69;5006718;28;20049;-39
2022/03/16 04:27:55;;;;;;;55.73;30.07;;;8.70;99.90;;;9.01;70.47;98346.56;5006751;28;20053;-39
2022/03/16 04:30:23;;;;;;;57.93;29.37;;;8.70;99.90;;;9.00;70.33;98348.38;5007859;28;20048;-40
2022/03/16 04:32:52;;;;;;;59.63;30.90;;;8.70;99.90;;;8.98;70.54;98344.19;5007051;28;20064;-40
2022/03/16 04:35:20;;;;;;;59.50;30.13;;;8.60;99.90;;;8.97;70.33;98345.97;5006305;28;20057;-39
2022/03/16 04:37:48;;;;;;;59.27;30.27;;;8.60;99.90;;;8.97;70.15;98347.81;5007126;28;20382;-40
2022/03/16 04:40:16;;;;;;;63.07;32.33;;;8.60;99.90;;;8.95;70.48;98345.28;5007275;28;20061;-40
2022/03/16 04:42:50;;;;;;;61.23;30.97;;;8.50;99.90;;;8.95;70.35;98339.97;5006948;28;20207;-40
2022/03/16 04:45:17;;;;;;;;;;;8.60;99.90;;;8.90;70.12;98344.84;5006742;28;20251;-40
2022/03/16 04:47:45;;;;;;;66.73;33.17;;;8.50;99.90;;;8.91;70.31;98349.19;5006946;28;19917;-40
2022/03/16 04:50:13;;;;;;;68.50;35.67;;;8.50;99.90;;;8.90;70.41;98347.50;5005303;28;20056;-40
2022/03/16 04:52:48;;;;;;;76.10;34.43;;;8.50;99.90;;;8.90;70.41;98344.00;5006547;28;20166;-40
2022/03/16 04:55:16;;;;;;;66.77;36.27;;;8.50;99.90;;;8.87;70.58;98345.09;5006736;28;20050;-40
2022/03/16 04:57:44;;;;;;;73.70;36.97;;;8.40;99.90;;;8.87;70.47;98342.44;5005944;28;20068;-40
2022/03/16 05:00:13;;;;;;;69.50;35.13;;;8.50;99.90;;;8.87;70.65;98348.59;5006263;28;20068;-40
2022/03/16 05:02:41;;;;;;;67.07;35.40;;;8.50;99.90;;;8.86;70.66;98346.09;5007147;28;20064;-39
2022/03/16 05:05:10;;;;;;;61.63;33.80;;;8.50;99.90;;;8.84;71.04;98351.53;5007673;28;20060;-39
2022/03/16 05:07:39;;;;;;;66.93;34.30;;;8.50;99.90;;;8.85;70.68;98347.06;5010909;28;20233;-39
2022/03/16 05:10:09;;;;;;;57.23;32.17;;;8.40;99.90;;;8.85;70.59;98347.06;5009800;28;20054;-40
2022/03/16 05:12:40;;;;;;;60.60;32.17;;;8.40;99.90;;;8.84;70.55;98343.56;5012283;28;20080;-40
2022/03/16 05:15:15;;;;;;;63.27;31.83;;;8.50;99.90;;;8.87;70.62;98350.41;5009774;28;20244;-40
2022/03/16 05:17:43;;;;;;;60.30;30.37;;;8.50;99.90;;;8.85;70.76;98342.59;5010005;28;20056;-40
2022/03/16 05:20:14;;;;;;;61.03;30.90;;;8.50;99.90;;;8.83;70.88;98344.53;5010008;28;20075;-40
2022/03/16 05:22:51;;;;;;;61.00;32.37;;;8.40;99.90;;;8.83;70.52;98343.69;5010512;28;20053;-40
2022/03/16 05:25:22;;;;;;;56.83;30.07;;;8.50;99.90;;;8.82;70.53;98349.97;5010970;28;20052;-41
2022/03/16 05:27:52;;;;;;;54.83;30.23;;;8.50;99.90;;;8.83;70.74;98349.84;5008495;28;20401;-40
2022/03/16 05:30:23;;;;;;;58.40;31.20;;;8.50;99.90;;;8.83;70.70;98352.50;5010443;28;20347;-40
2022/03/16 05:32:56;;;;;;;55.53;31.17;;;8.50;99.90;;;8.83;70.84;98357.81;5010757;28;20053;-40
2022/03/16 05:35:24;;;;;;;55.17;30.43;;;8.50;99.90;;;8.84;70.63;98358.63;5008512;28;20371;-40
2022/03/16 05:37:52;;;;;;;55.57;30.50;;;8.50;99.90;;;8.84;70.96;98359.50;5010706;28;20352;-40
2022/03/16 05:40:20;;;;;;;58.73;29.87;;;8.50;99.90;;;8.83;70.66;98367.59;5010067;28;20386;-40
2022/03/16 05:42:48;;;;;;;56.07;31.80;;;8.40;99.90;;;8.83;70.48;98365.78;5009476;28;20057;-40
2022/03/16 05:45:22;;;;;;;55.55;30.50;;;8.40;99.90;;;8.83;70.71;98367.59;5009959;28;20048;-40
2022/03/16 05:47:50;;;;;;;52.13;29.67;;;8.40;99.90;;;8.84;70.77;98366.59;5009808;28;20046;-40
2022/03/16 05:50:18;;;;;;;49.50;29.50;;;8.40;99.90;;;8.81;70.65;98370.38;5010359;28;20239;-40
2022/03/16 05:52:46;;;;;;;48.87;27.20;;;8.40;99.90;;;8.81;70.64;98375.69;5008760;28;20058;-40
2022/03/16 05:55:14;;;;;;;49.53;29.13;;;8.40;99.90;;;8.82;70.42;98368.56;5010880;28;20359;-40
2022/03/16 05:57:44;;;;;;;52.57;30.60;;;8.40;99.90;;;8.82;70.55;98376.53;5010387;28;20088;-40
2022/03/16 06:00:16;;;;;;;46.23;28.47;;;8.40;99.90;;;8.84;70.49;98377.22;5009440;28;20046;-40
2022/03/16 06:02:45;;;;;;;52.67;27.73;;;8.50;99.90;;;8.81;70.66;98380.16;5009695;28;20049;-40
2022/03/16 06:05:15;;;;;;;50.17;28.40;;;8.40;99.90;;;8.81;70.53;98380.16;5007605;28;20433;-40
2022/03/16 06:07:43;;;;;;;53.27;28.93;;;8.40;99.90;;;8.80;70.73;98378.47;5008971;28;20366;-40
2022/03/16 06:10:17;;;;;;;52.00;30.03;;;8.40;99.90;;;8.80;70.62;98378.47;5008590;28;20359;-40
2022/03/16 06:13:00;;;;;;;46.15;28.38;;;8.40;99.90;;;8.78;70.51;98381.28;5010659;28;20057;-40
2022/03/16 06:15:36;;;;;;;50.88;27.23;;;8.40;99.90;;;8.80;70.73;98376.69;5008733;28;20068;-40
2022/03/16 06:18:04;;;;;;;52.67;30.43;;;8.40;99.90;;;8.81;70.79;98378.34;5008760;28;20205;-40
2022/03/16 06:20:35;;;;;;;50.63;28.23;;;8.40;99.90;;;8.83;70.71;98376.38;5009293;28;20056;-40
2022/03/16 06:23:05;;;;;;;44.37;28.10;;;8.50;99.90;;;8.82;70.61;98377.38;5009632;28;20049;-40
2022/03/16 06:25:37;;;;;;;51.37;28.03;;;8.50;99.90;;;8.83;70.66;98384.34;5009231;28;20060;-40
2022/03/16 06:28:05;;;;;;;48.53;29.30;;;8.50;99.90;;;8.84;70.80;98382.53;5008800;28;20259;-39
2022/03/16 06:30:33;;;;;;;43.23;26.23;;;8.50;99.90;;;8.84;70.62;98385.19;5008858;28;20046;-40
2022/03/16 06:33:00;;;;;;;40.80;25.20;;;8.50;99.90;;;8.83;70.79;98392.31;5010220;28;20052;-40
2022/03/16 06:35:28;;;;;;;39.53;24.47;;;8.50;99.90;;;8.82;70.74;98389.78;5009179;28;20052;-40
2022/03/16 06:37:56;;;;;;;41.57;24.10;;;8.50;99.90;;;8.83;70.76;98397.63;5009184;28;20060;-40
2022/03/16 06:40:24;;;;;;;38.07;23.10;;;8.50;99.90;;;8.84;70.57;98393.16;5007504;28;20060;-40
2022/03/16 06:42:56;;;;;;;39.77;23.77;;;8.50;99.90;;;8.82;70.60;98389.78;5008383;28;20060;-40
2022/03/16 06:45:28;;;;;;;35.27;22.67;;;8.50;99.90;;;8.80;70.35;98387.28;5007570;28;20060;-40
2022/03/16 06:47:59;;;;;;;41.10;22.80;;;8.50;99.90;;;8.78;70.64;98394.56;5008350;28;20060;-40
2022/03/16 06:50:28;;;;;;;39.17;22.60;;;8.40;99.90;;;8.79;70.49;98403.34;5008871;28;20248;-40
2022/03/16 06:52:57;;;;;;;40.13;24.37;;;8.40;99.90;;;8.80;70.39;98405.00;5024905;28;20045;-40
2022/03/16 06:55:26;;;;;;;42.90;25.60;;;8.50;99.90;;;8.80;70.52;98405.88;5026534;28;20057;-39
2022/03/16 06:57:55;;;;;;;39.73;25.50;;;8.40;99.90;;;8.79;70.45;98404.19;5028287;28;20255;-40
2022/03/16 07:00:23;;;;;;;35.77;22.20;;;8.40;99.90;;;8.81;70.38;98410.19;5028346;28;20042;-41
2022/03/16 07:03:00;;;;;;;36.37;22.80;;;8.50;99.90;;;8.74;70.67;98413.50;5023424;28;20062;-40
2022/03/16 07:05:39;;;;;;;41.83;23.07;;;8.50;99.90;;;8.73;70.58;98411.84;5026381;28;20062;-40
2022/03/16 07:08:10;;;;;;;39.30;23.60;;;8.50;99.90;;;8.69;70.84;98413.09;5028097;28;20355;-40
2022/03/16 07:10:42;;;;;;;37.03;23.10;;;8.50;99.90;;;8.70;70.61;98407.63;5028068;28;20053;-40
2022/03/16 07:13:12;;;;;;;38.60;21.27;;;8.50;99.90;;;8.72;70.49;98418.13;5029276;28;20060;-40
2022/03/16 07:15:43;;;;;;;38.53;21.70;;;8.50;99.90;;;8.75;70.39;98416.03;5027887;28;20227;-39
2022/03/16 07:18:12;;;;;;;34.17;21.53;;;8.50;99.90;;;8.77;70.29;98427.38;5026880;28;20049;-40
2022/03/16 07:20:40;;;;;;;39.90;21.23;;;8.60;99.90;;;8.79;70.23;98422.78;5025572;28;20252;-40
2022/03/16 07:23:12;;;;;;;36.87;21.73;;;8.60;99.90;;;8.81;70.17;98423.47;5028494;28;20059;-40
2022/03/16 07:25:47;;;;;;;35.20;22.83;;;8.60;99.90;;;8.84;70.41;98436.50;5028565;28;20069;-40
2022/03/16 07:28:16;;;;;;;33.90;21.10;;;8.60;99.90;;;8.87;70.38;98430.91;5025471;28;20222;-40
2022/03/16 07:30:47;;;;;;;37.87;21.93;;;8.60;99.90;;;8.88;70.31;98431.78;5027903;28;20064;-40
2022/03/16 07:33:16;;;;;;;36.27;21.10;;;8.60;99.90;;;8.91;70.14;98434.16;5027968;28;20071;-41
2022/03/16 07:35:45;;;;;;;34.80;22.07;;;8.60;99.90;;;8.93;70.37;98440.16;5027608;28;20063;-41
2022/03/16 07:38:13;;;;;;;44.37;25.17;;;8.70;99.90;;;8.95;70.12;98445.34;5027307;28;20243;-40
2022/03/16 07:40:41;;;;;;;37.67;23.63;;;8.60;99.90;;;8.93;70.14;98431.38;5026900;28;20045;-40
2022/03/16 07:43:10;;;;;;;37.47;22.30;;;8.70;99.90;;;8.96;70.00;98433.78;5028833;28;20075;-40
2022/03/16 07:45:38;;;;;;;38.67;23.37;;;8.70;99.90;;;8.99;70.11;98431.66;5027330;28;20422;-40
2022/03/16 07:48:06;;;;;;;35.10;22.73;;;8.70;99.90;;;9.00;70.10;98441.34;5028926;28;20064;-40
2022/03/16 07:50:34;;;;;;;38.77;22.87;;;8.70;99.90;;;9.02;69.92;98446.53;5027020;28;20162;-40
2022/03/16 07:53:03;;;;;;;37.03;23.30;;;8.80;99.90;;;9.03;70.01;98446.41;5027013;28;20255;-40
2022/03/16 07:55:31;;;;;;;39.40;23.00;;;8.80;99.90;;;9.02;70.08;98447.34;5026187;28;20322;-40
2022/03/16 07:57:59;;;;;;;37.27;23.20;;;8.70;99.90;;;9.03;69.90;98449.06;5027149;28;20299;-40
2022/03/16 08:00:27;;;;;;;40.93;24.30;;;8.80;99.90;;;9.04;69.92;98449.88;5026684;28;20057;-41
2022/03/16 08:03:01;;;;;;;34.57;21.50;;;8.70;99.90;;;9.05;69.92;98452.41;5027127;28;20084;-40
2022/03/16 08:05:31;;;;;;;40.53;24.08;;;8.80;99.90;;;9.03;69.89;98456.16;5027431;28;20057;-40
2022/03/16 08:07:59;;;;;;;42.70;24.37;;;8.70;99.90;;;9.03;70.30;98459.69;5026482;28;20042;-40
2022/03/16 08:10:27;;;;;;;36.80;21.93;;;8.60;99.90;;;9.00;69.70;98454.63;5027263;28;20442;-40
2022/03/16 08:12:54;;;;;;;35.50;21.57;;;8.70;99.90;;;9.00;69.94;98451.97;5027400;28;20057;-40
2022/03/16 08:15:22;;;;;;;38.70;22.37;;;8.70;99.90;;;9.01;69.80;98447.47;5025946;28;20057;-40
2022/03/16 08:17:51;;;;;;;38.27;23.30;;;8.70;99.90;;;9.02;70.00;98446.53;5015901;28;20054;-40
2022/03/16 08:20:19;;;;;;;35.43;21.53;;;8.70;99.90;;;9.04;69.67;98445.41;5006332;28;20045;-40
2022/03/16 08:22:47;;;;;;;38.87;23.70;;;8.70;99.90;;;9.05;69.95;98443.59;5007066;28;20050;-40
2022/03/16 08:25:15;;;;;;;44.20;24.43;;;8.70;99.90;;;9.08;69.82;98438.03;5005947;28;20086;-40
2022/03/16 08:27:43;;;;;;;35.57;23.13;;;8.80;99.90;;;9.12;69.88;98435.94;5009135;28;20058;-40
2022/03/16 08:30:12;;;;;;;34.23;20.90;;;8.80;99.90;;;9.12;69.63;98433.28;5014217;28;20058;-40
2022/03/16 08:32:40;;;;;;;37.93;22.13;;;8.80;99.90;;;9.13;69.85;98427.84;5013638;28;20042;-40
2022/03/16 08:35:10;;;;;;;36.10;21.70;;;8.90;99.90;;;9.13;70.05;98432.31;5012141;28;20362;-41
2022/03/16 08:37:38;;;;;;;36.53;21.43;;;8.90;99.90;;;9.16;69.70;98434.69;5016061;28;20055;-40
2022/03/16 08:40:08;;;;;;;34.53;23.10;;;8.90;99.90;;;9.18;69.75;98443.38;5016534;28;20046;-40
2022/03/16 08:42:37;;;;;;;34.20;21.00;;;8.90;99.90;;;9.13;69.80;98437.63;5011828;28;20038;-40
2022/03/16 08:45:05;;;;;;;34.53;19.97;;;9.00;99.90;;;9.16;69.73;98437.34;5020969;28;20049;-40
2022/03/16 08:47:33;;;;;;;36.47;20.57;;;9.10;99.90;;;9.17;69.90;98441.69;5027703;28;20045;-40
2022/03/16 08:50:03;;;;;;;33.43;19.60;;;9.10;99.90;;;9.23;69.76;98435.88;5033890;28;20111;-40
2022/03/16 08:52:31;;;;;;;35.73;20.77;;;9.10;99.90;;;9.25;69.73;98429.44;5035791;28;20060;-40
2022/03/16 08:55:05;;;;;;;34.57;21.17;;;9.10;99.90;;;9.29;69.85;98429.19;5036985;28;20054;-40
2022/03/16 08:57:38;;;;;;;29.57;18.67;;;9.20;99.90;;;9.30;69.68;98436.16;5036488;28;20055;-40
2022/03/16 09:00:07;;;;;;;33.80;21.00;;;9.20;99.90;;;9.31;69.66;98433.38;5035909;28;20041;-40
2022/03/16 09:02:36;;;;;;;33.80;20.13;;;9.20;99.90;;;9.36;69.61;98433.78;5035322;28;20056;-40
2022/03/16 09:05:05;;;;;;;33.70;20.97;;;9.30;99.90;;;9.40;69.40;98429.06;5040142;28;20048;-40
2022/03/16 09:07:33;;;;;;;34.70;20.00;;;9.30;99.90;;;9.41;69.24;98434.25;5045734;28;20251;-40
2022/03/16 09:10:02;;;;;;;35.30;21.30;;;9.30;99.90;;;9.44;69.35;98430.47;5045899;28;20242;-40
2022/03/16 09:12:30;;;;;;;33.93;19.23;;;9.30;99.90;;;9.43;69.63;98431.47;5051234;28;20067;-39
2022/03/16 09:14:58;;;;;;;32.57;18.87;;;9.40;99.90;;;9.48;69.50;98428.38;5049754;28;20038;-40
2022/03/16 09:17:25;;;;;;;35.07;20.27;;;9.40;99.90;;;9.54;69.52;98422.53;5049857;28;20048;-39
2022/03/16 09:19:53;;;;;;;37.63;22.50;;;9.50;99.90;;;9.61;69.44;98419.19;5036925;28;20352;-40
2022/03/16 09:22:23;;;;;;;34.80;21.63;;;9.50;99.90;;;9.64;69.36;98412.78;5033505;28;20063;-39
2022/03/16 09:24:51;;;;;;;31.23;20.57;;;9.50;99.90;;;9.68;69.25;98413.34;5032207;28;20235;-39
2022/03/16 09:27:19;;;;;;;32.23;19.57;;;9.60;99.90;;;9.70;69.18;98416.72;5029401;28;20231;-40
2022/03/16 09:29:47;;;;;;;32.23;19.10;;;9.60;99.90;;;9.74;69.24;98415.44;5028473;28;20231;-39
2022/03/16 09:32:15;;;;;;;34.23;20.13;;;9.60;99.90;;;9.75;69.27;98415.31;5019037;28;20247;-40
2022/03/16 09:34:44;;;;;;;32.37;18.77;;;9.60;99.90;;;9.79;69.16;98422.03;5022099;28;20053;-39
2022/03/16 09:37:14;;;;;;;32.80;19.80;;;9.70;99.90;;;9.81;69.16;98425.41;5032117;28;20053;-40
2022/03/16 09:39:44;;;;;;;31.13;19.50;;;9.70;99.90;;;9.86;69.04;98435.63;5024839;28;20324;-40
2022/03/16 09:42:13;;;;;;;30.47;19.80;;;9.70;99.90;;;9.79;69.09;98426.50;5024220;28;20330;-40
2022/03/16 09:44:42;;;;;;;29.40;18.47;;;9.70;99.90;;;9.77;68.85;98426.66;5026601;28;20053;-40
2022/03/16 09:47:12;;;;;;;31.40;19.00;;;9.80;99.90;;;9.74;69.02;98423.44;5025994;28;20370;-40
2022/03/16 09:49:40;;;;;;;38.13;22.97;;;9.80;99.90;;;9.75;69.02;98414.47;5026839;28;20053;-40
2022/03/16 09:52:09;;;;;;;34.60;20.00;;;9.90;99.90;;;9.78;68.84;98419.50;5025553;28;20057;-40
2022/03/16 09:54:38;;;;;;;32.50;19.83;;;9.90;99.90;;;9.78;69.15;98408.88;5030696;28;20056;-40
2022/03/16 09:57:06;;;;;;;31.50;19.17;;;10.00;99.90;;;9.85;69.21;98410.84;5030041;28;20057;-40
2022/03/16 09:59:33;;;;;;;31.63;19.07;;;10.00;99.90;;;9.91;68.68;98409.47;5030760;28;20077;-40
2022/03/16 10:02:06;;;;;;;26.97;18.27;;;10.00;99.90;;;9.98;68.99;98409.72;5030185;28;20055;-40
2022/03/16 10:04:36;;;;;;;29.27;17.80;;;10.10;99.90;;;10.04;69.12;98406.50;5029359;28;20046;-40
2022/03/16 10:07:08;;;;;;;29.70;17.93;;;10.10;99.90;;;10.00;68.90;98398.00;5029421;28;20060;-40
2022/03/16 10:15:18;;;;;;;26.07;16.13;;;10.30;99.90;;;10.19;68.46;98401.63;5029789;28;20057;-40
2022/03/16 10:17:51;;;;;;;26.57;17.70;;;10.40;99.90;;;10.28;68.83;98400.78;5029110;28;20051;-40
2022/03/16 10:20:37;;;;;;;26.53;18.37;;;10.40;99.90;;;10.38;68.99;98400.81;5029967;28;20057;-40
2022/03/16 10:23:05;;;;;;;28.45;16.70;;;10.50;99.90;;;10.42;68.71;98394.22;5028174;28;20239;-40
2022/03/16 10:25:36;;;;;;;28.50;17.38;;;10.60;99.90;;;10.52;68.45;98386.22;5029151;28;20493;-40
2022/03/16 10:28:10;;;;;;;28.63;16.42;;;10.70;99.90;;;10.56;68.11;98392.94;5029158;28;20053;-40
2022/03/16 10:30:52;;;;;;;23.98;16.65;;;10.70;99.90;;;10.53;67.81;98387.91;5028351;28;20055;-40
2022/03/16 10:33:21;;;;;;;25.70;17.00;;;10.70;99.90;;;10.56;67.76;98391.09;5030147;28;20263;-41